Pagrindinis puslapis
METAR-TAF:

METAR-TAF

Oro uostai :

Merced, Kalifornija, Jungtinės Amerikos Valstijos

platuma: 37-22N, ilguma: 120-34W, Aukštis: 57 m

Dabartinis oras

Ataskaita buvo paskelbta 50 minutes, ne 07:15 UTC
Vėjas 14 kt iš Šiaurės/Šiaurės Vakarų
Temperatūra 19°C
Drėgmė 37%
Slėgis 1006 hPa
Matomumas: 16.1 km
Giedras dangus

METAR: KMER 200715Z AUTO 33014KT 10SM CLR 19/04 A2972 RMK AO1

Laikas: 01:05 (08:05 UTC)

Prognozė

Ataskaita buvo paskelbta 1 valandą ir 52 minutes, ne 06:13 UTC
Prognozė galioja nuo 20 metu 06 UTC su 21 metu 06 UTC
Vėjas 12 kt iš Šiaurės/Šiaurės Vakarų
Matomumas: 10 km
Mažai debesys ne aukštis 20000 ft
Nuo 21 metu 0300 UTC
Vėjas 5 kt iš Vakarų/Šiaurės Vakarų
Matomumas: 10 km
Giedras dangus

TAF: KMER 200613Z 2006/2106 33012KT P6SM FEW200 FM210300 30005KT P6SM SKC AMD NOT SKED

Orai ataskaitas ir orų prognozės (METAR, TAF).

turimą stotys yra geltonos ir raudonos taškus žemėlapyje.

Perkelti pele per norėdami pamatyti stoties vardą.

Tada spustelėkite, norėdami matyti oro stebėjimo ir prognozės.

Norėdami pakeisti žemėlapį: spustelėkite ant žalios mygtukų su juodo kryžiaus žemyn,; žalią mygtuką su brūkšneliu, jei norite nutolinti; arba žalių rodyklių gretimoms žemėlapius.


METAR-TAF: